Aeroporto :
LOGIN :

Iscrizione | Disclaimer

   EN    FR    IT 

 










Sommario :    VFR   VFR Marginale   IFR   IFR Intensivo   IFR Molto Intensivo
Visibilità : 
Base nubi : 
>= 8 km
>= 3000ft
5 / 8 km
1000 / 3000 ft
1500m / 5 km
500 / 1000 ft
800 / 1500m
200 / 500 ft
< 800m
< 200 ft
Simboli :   Temporali  Nebbia  Neve Forte  Precipitazioni Forti  Vento > 20 kt
SIGMETs :   Varie  Temporali  Ghiacco  Turbolenza  Onda orograficha  Ceneri Vulcaniche






- Altitudine del aeroporto : 659 ft
- Codice IATA : LGG


EBLG - Liège

ULTIMO METAR :
  • 141220Z 23018G28KT 9999 FEW022 07/03 Q0994 TEMPO 23025G38KT 3000 RA

METARs OBSOLETI :
  • 141150Z 23018KT 9999 FEW025 07/02 Q0994 NOSIG
  • 141120Z 24017KT 9999 FEW025 06/01 Q0994 NOSIG
  • 141050Z 25018KT 9999 FEW025 06/01 Q0994 NOSIG
  • 141020Z 26018KT 9999 FEW030 06/01 Q0994 NOSIG
  • 140950Z 25019KT 9999 FEW030 06/02 Q0993 NOSIG

TAF TAF EBLG
Valido dal 14 a 12 ore il 15 a 18 ore UTC


141110Z 1412/1518 24015G25KT 9999 FEW014TCU SCT030
PROB40
TEMPO 1412/1416 25022G37KT
PROB30
TEMPO 1412/1414 4000 SHRA BKN012
BECMG 1418/1420 19011KT
BECMG 1501/1504 24015G25KT
PROB30
TEMPO 1501/1506 4000 SHRA RA BKN012
PROB40
TEMPO 1504/1507 25024G38KT
BECMG 1514/1516 20012KT



MetMap, La meteo Aeronautica in un colpo d'occhio ! - Copyright ORBIFLY Dicembre 2007 - Disclaimer

ORBIFLY MET'MAP TEAM :

Programmazione e sviluppo : Alexandra Zaïnal
Concezione : Baudouin d'Aumeries
Aiuto per la programmazione : Marc-Olivier Méhu
Supporto tecnico e logistico : Manuel Goepfert
Aiuto per la traduzione : Arnaldo La Scala

Contatto : metmap@orbifly.com




FONTI E CREDITI :

   NOAA